West Panama City Beach, Florida
Current Conditions -  °F | °C
As of 2:53 AM on Sunday 23 Nov 2014 (Local Time) from KECP Reporting Station
Overcast Overcast  
Wind Chill: 65°   Ceiling: 400
Heat Index: 65°   Visibility: 10mi
Dew Point: 63°   Wind: 9mph
Humidity: 93%   Direction: 90°E
Pressure: 29.9"   Gusts: NA
Location:  30.3525°N, 85.9093°W
Report Text: KECP 230853Z AUTO 09008KT 10SM OVC004 18/17 A2990 RMK AO2 SLP135 6//// T01830172 56032 PNO $
Loading
Personal Weather Stations






























Interactive Weather Map New forecast layout! Learn more

10-Day Weather Forecast

Advertisements
Track Severe Weather on mobile